createdAt,value
2018-03-27T00:00:55.024Z,101194.20
2018-03-27T00:03:20.868Z,101191.20
2018-03-27T00:05:46.806Z,101195.59
2018-03-27T00:08:12.707Z,101195.06
2018-03-27T00:10:38.572Z,101192.37
2018-03-27T00:13:04.431Z,101197.72
2018-03-27T00:15:30.347Z,101199.50
2018-03-27T00:17:56.284Z,101202.77
2018-03-27T00:20:22.225Z,101201.07
2018-03-27T00:22:48.118Z,101191.56
2018-03-27T00:25:13.990Z,101199.36
2018-03-27T00:27:52.174Z,101197.97
2018-03-27T00:30:30.422Z,101207.55
2018-03-27T00:33:08.700Z,101203.13
2018-03-27T00:35:46.938Z,101205.64
2018-03-27T00:38:25.131Z,101204.22
2018-03-27T00:40:50.867Z,101203.66
2018-03-27T00:43:16.708Z,101204.70
2018-03-27T00:45:42.661Z,101205.56
2018-03-27T00:48:08.512Z,101213.84
2018-03-27T00:50:34.360Z,101209.44
2018-03-27T00:53:00.501Z,101213.77
2018-03-27T00:55:26.369Z,101213.77
2018-03-27T00:57:52.224Z,101214.56
2018-03-27T01:00:18.134Z,101211.98
2018-03-27T01:02:44.105Z,101211.57
2018-03-27T01:05:09.990Z,101206.08
2018-03-27T01:07:35.981Z,101203.36
2018-03-27T01:10:01.860Z,101209.84
2018-03-27T01:12:27.705Z,101211.56
2018-03-27T01:14:53.619Z,101215.15
2018-03-27T01:17:19.478Z,101208.24
2018-03-27T01:19:45.417Z,101205.70
2018-03-27T01:22:11.406Z,101197.33
2018-03-27T01:24:37.265Z,101215.37
2018-03-27T01:27:03.117Z,101203.37
2018-03-27T01:29:29.037Z,101208.97
2018-03-27T01:31:54.989Z,101208.09
2018-03-27T01:34:20.841Z,101207.23
2018-03-27T01:36:46.725Z,101199.94
2018-03-27T01:39:12.598Z,101204.61
2018-03-27T01:41:38.444Z,101218.10
2018-03-27T01:44:04.738Z,101214.61
2018-03-27T01:46:30.622Z,101213.26
2018-03-27T01:48:56.526Z,101221.84
2018-03-27T01:51:22.420Z,101215.47
2018-03-27T01:53:48.278Z,101218.73
2018-03-27T01:56:14.227Z,101217.53
2018-03-27T01:58:40.190Z,101218.75
2018-03-27T02:01:06.057Z,101215.69
2018-03-27T02:03:31.919Z,101218.75
2018-03-27T02:05:57.821Z,101205.77
2018-03-27T02:08:23.774Z,101212.77
2018-03-27T02:10:49.582Z,101217.94
2018-03-27T02:13:21.925Z,101212.76
2018-03-27T02:15:53.884Z,101217.09
2018-03-27T02:18:26.020Z,101212.59
2018-03-27T02:20:58.128Z,101204.84
2018-03-27T02:23:26.888Z,101214.39
2018-03-27T02:25:52.857Z,101218.25
2018-03-27T02:28:18.705Z,101209.53
2018-03-27T02:30:44.629Z,101210.47
2018-03-27T02:33:10.634Z,101213.89
2018-03-27T02:35:36.517Z,101206.02
2018-03-27T02:38:02.461Z,101212.08
2018-03-27T02:40:28.338Z,101212.89
2018-03-27T02:42:54.201Z,101209.93
2018-03-27T02:45:20.185Z,101215.17
2018-03-27T02:47:46.148Z,101213.47
2018-03-27T02:50:12.009Z,101220.33
2018-03-27T02:52:38.255Z,101218.11
2018-03-27T02:55:04.133Z,101214.38
2018-03-27T02:57:30.011Z,101218.62
2018-03-27T02:59:55.923Z,101213.91
2018-03-27T03:02:21.815Z,101223.90
2018-03-27T03:04:47.689Z,101220.71
2018-03-27T03:07:13.600Z,101219.97
2018-03-27T03:09:39.467Z,101226.81
2018-03-27T03:12:05.326Z,101223.82
2018-03-27T03:14:31.261Z,101218.64
2018-03-27T03:16:57.120Z,101221.62
2018-03-27T03:19:22.977Z,101214.25
2018-03-27T03:21:48.877Z,101211.20
2018-03-27T03:24:14.742Z,101210.30
2018-03-27T03:26:40.591Z,101206.36
2018-03-27T03:29:06.632Z,101199.89
2018-03-27T03:31:32.499Z,101199.63
2018-03-27T03:33:58.368Z,101199.16
2018-03-27T03:36:24.281Z,101198.23
2018-03-27T03:38:50.136Z,101201.61
2018-03-27T03:41:16.065Z,101203.59
2018-03-27T03:43:41.960Z,101200.36
2018-03-27T03:46:07.833Z,101200.48
2018-03-27T03:48:33.688Z,101201.70
2018-03-27T03:50:59.585Z,101203.61
2018-03-27T03:53:25.448Z,101205.68
2018-03-27T03:55:51.300Z,101199.84
2018-03-27T03:58:17.221Z,101202.25
2018-03-27T04:00:43.074Z,101196.41
2018-03-27T04:03:08.933Z,101197.47
2018-03-27T04:05:34.904Z,101199.41
2018-03-27T04:08:00.762Z,101203.13
2018-03-27T04:10:26.621Z,101211.20
2018-03-27T04:12:52.514Z,101213.80
2018-03-27T04:15:18.384Z,101217.72
2018-03-27T04:17:44.243Z,101213.09
2018-03-27T04:20:10.137Z,101212.43
2018-03-27T04:22:36.097Z,101214.66
2018-03-27T04:25:01.969Z,101207.41
2018-03-27T04:27:27.868Z,101205.39
2018-03-27T04:29:53.781Z,101208.97
2018-03-27T04:32:19.632Z,101211.02
2018-03-27T04:34:45.526Z,101214.21
2018-03-27T04:37:11.383Z,101214.41
2018-03-27T04:39:37.249Z,101213.41
2018-03-27T04:42:03.151Z,101221.41
2018-03-27T04:44:29.013Z,101225.64
2018-03-27T04:46:54.863Z,101222.45
2018-03-27T04:49:20.786Z,101224.48
2018-03-27T04:51:46.657Z,101224.94
2018-03-27T04:54:12.524Z,101226.59
2018-03-27T04:56:38.477Z,101217.97
2018-03-27T04:59:04.361Z,101223.32
2018-03-27T05:01:30.224Z,101218.83
2018-03-27T05:03:56.122Z,101219.15
2018-03-27T05:06:21.982Z,101231.02
2018-03-27T05:08:47.881Z,101224.75
2018-03-27T05:11:13.812Z,101224.70
2018-03-27T05:13:39.677Z,101223.20
2018-03-27T05:16:05.532Z,101232.11
2018-03-27T05:18:31.429Z,101238.09
2018-03-27T05:20:57.361Z,101236.27
2018-03-27T05:23:23.222Z,101236.54
2018-03-27T05:25:49.166Z,101238.09
2018-03-27T05:28:15.038Z,101234.72
2018-03-27T05:30:41.218Z,101244.54
2018-03-27T05:33:07.177Z,101235.61
2018-03-27T05:35:33.021Z,101238.72
2018-03-27T05:37:58.894Z,101240.87
2018-03-27T05:40:24.804Z,101243.05
2018-03-27T05:42:50.696Z,101249.98
2018-03-27T05:45:16.552Z,101255.02
2018-03-27T05:47:42.906Z,101251.59
2018-03-27T05:50:08.868Z,101255.49
2018-03-27T05:52:34.757Z,101260.09
2018-03-27T05:55:00.694Z,101242.84
2018-03-27T05:57:26.569Z,101251.18
2018-03-27T05:59:52.453Z,101259.86
2018-03-27T06:02:18.382Z,101253.31
2018-03-27T06:04:44.288Z,101248.22
2018-03-27T06:07:10.141Z,101252.44
2018-03-27T06:09:36.042Z,101245.21
2018-03-27T06:12:01.951Z,101255.68
2018-03-27T06:14:27.813Z,101251.08
2018-03-27T06:16:53.718Z,101262.46
2018-03-27T06:19:19.595Z,101257.47
2018-03-27T06:21:45.436Z,101260.98
2018-03-27T06:24:11.361Z,101258.20
2018-03-27T06:26:37.249Z,101263.40
2018-03-27T06:29:03.104Z,101258.86
2018-03-27T06:31:29.365Z,101263.25
2018-03-27T06:33:55.257Z,101265.55
2018-03-27T06:36:21.182Z,101266.88
2018-03-27T06:38:47.093Z,101257.45
2018-03-27T06:41:13.148Z,101269.09
2018-03-27T06:43:39.077Z,101269.00
2018-03-27T06:46:04.992Z,101262.61
2018-03-27T06:48:30.937Z,101267.03
2018-03-27T06:50:56.881Z,101279.72
2018-03-27T06:53:22.770Z,101268.24
2018-03-27T06:55:48.629Z,101269.64
2018-03-27T06:58:14.481Z,101262.17
2018-03-27T07:00:40.541Z,101263.91
2018-03-27T07:03:06.434Z,101262.64
2018-03-27T07:05:32.370Z,101265.20
2018-03-27T07:07:58.200Z,101259.33
2018-03-27T07:10:24.053Z,101255.13
2018-03-27T07:12:49.924Z,101255.50
2018-03-27T07:15:15.837Z,101252.59
2018-03-27T07:17:41.692Z,101251.95
2018-03-27T07:20:07.545Z,101246.49
2018-03-27T07:22:33.440Z,101246.02
2018-03-27T07:24:59.335Z,101255.80
2018-03-27T07:27:25.252Z,101253.20
2018-03-27T07:29:51.253Z,101253.17
2018-03-27T07:32:17.967Z,101251.88
2018-03-27T07:34:43.877Z,101253.80
2018-03-27T07:37:09.786Z,101237.09
2018-03-27T07:39:35.760Z,101244.14
2018-03-27T07:42:01.613Z,101242.05
2018-03-27T07:44:27.508Z,101241.67
2018-03-27T07:46:53.373Z,101237.41
2018-03-27T07:49:19.229Z,101236.20
2018-03-27T07:51:45.429Z,101242.36
2018-03-27T07:54:11.360Z,101237.16
2018-03-27T07:56:37.274Z,101241.58
2018-03-27T07:59:03.182Z,101242.98
2018-03-27T08:01:29.136Z,101241.34
2018-03-27T08:03:55.115Z,101239.19
2018-03-27T08:06:21.004Z,101237.46
2018-03-27T08:08:46.937Z,101237.05
2018-03-27T08:11:12.803Z,101233.98
2018-03-27T08:13:38.729Z,101234.80
2018-03-27T08:16:04.586Z,101230.09
2018-03-27T08:18:30.513Z,101222.23
2018-03-27T08:20:56.356Z,101223.47
2018-03-27T08:23:22.196Z,101232.23
2018-03-27T08:25:48.053Z,101230.09
2018-03-27T08:28:14.048Z,101226.98
2018-03-27T08:30:39.909Z,101223.05
2018-03-27T08:33:05.830Z,101232.98
2018-03-27T08:35:31.841Z,101229.07
2018-03-27T08:37:57.820Z,101225.66
2018-03-27T08:40:24.401Z,101223.44
2018-03-27T08:42:50.296Z,101224.63
2018-03-27T08:45:16.190Z,101225.44
2018-03-27T08:47:42.096Z,101233.84
2018-03-27T08:50:08.009Z,101230.42
2018-03-27T08:52:33.882Z,101227.86
2018-03-27T08:54:59.761Z,101240.48
2018-03-27T08:57:25.728Z,101236.09
2018-03-27T08:59:51.605Z,101236.11
2018-03-27T09:02:17.441Z,101240.45
2018-03-27T09:04:43.474Z,101232.19
2018-03-27T09:07:09.337Z,101228.28
2018-03-27T09:09:35.197Z,101233.49
2018-03-27T09:12:01.140Z,101232.64
2018-03-27T09:14:26.990Z,101226.10
2018-03-27T09:16:52.837Z,101225.28
2018-03-27T09:19:18.726Z,101217.38
2018-03-27T09:21:44.582Z,101222.22
2018-03-27T09:24:10.440Z,101216.37
2018-03-27T09:26:36.352Z,101223.22
2018-03-27T09:29:02.224Z,101212.00
2018-03-27T09:31:28.070Z,101206.73
2018-03-27T09:33:54.018Z,101211.59
2018-03-27T09:36:19.877Z,101212.70
2018-03-27T09:38:45.728Z,101208.12
2018-03-27T09:41:11.633Z,101205.44
2018-03-27T09:43:37.492Z,101203.22
2018-03-27T09:46:10.261Z,101206.27
2018-03-27T09:48:36.472Z,101195.73
2018-03-27T09:51:02.342Z,101209.16
2018-03-27T09:53:28.187Z,101202.56
2018-03-27T09:55:54.183Z,101199.66
2018-03-27T09:58:20.032Z,101205.63
2018-03-27T10:00:49.851Z,101200.83
2018-03-27T10:03:15.778Z,101202.60
2018-03-27T10:05:41.667Z,101199.98
2018-03-27T10:08:07.520Z,101197.61
2018-03-27T10:10:33.466Z,101196.26
2018-03-27T10:12:59.285Z,101192.84
2018-03-27T10:15:25.141Z,101194.29
2018-03-27T10:17:51.158Z,101187.58
2018-03-27T10:20:17.018Z,101184.42
2018-03-27T10:22:42.880Z,101184.91
2018-03-27T10:25:08.780Z,101179.19
2018-03-27T10:27:35.496Z,101171.32
2018-03-27T10:30:01.353Z,101175.07
2018-03-27T10:32:27.258Z,101171.61
2018-03-27T10:34:53.266Z,101167.45
2018-03-27T10:37:19.132Z,101164.89
2018-03-27T10:39:45.056Z,101168.50
2018-03-27T10:42:10.942Z,101159.17
2018-03-27T10:44:36.810Z,101169.59
2018-03-27T10:47:02.705Z,101166.23
2018-03-27T10:49:28.696Z,101162.72
2018-03-27T10:51:54.553Z,101161.94
2018-03-27T10:54:20.440Z,101163.02
2018-03-27T10:56:46.355Z,101159.52
2018-03-27T10:59:12.235Z,101157.55
2018-03-27T11:01:38.259Z,101155.23
2018-03-27T11:04:04.139Z,101156.64
2018-03-27T11:06:29.992Z,101156.16
2018-03-27T11:08:55.898Z,101148.61
2018-03-27T11:11:21.745Z,101149.05
2018-03-27T11:13:47.638Z,101148.28
2018-03-27T11:16:13.559Z,101153.30
2018-03-27T11:18:39.429Z,101149.97
2018-03-27T11:21:05.289Z,101145.99
2018-03-27T11:23:31.182Z,101137.66
2018-03-27T11:25:57.074Z,101143.41
2018-03-27T11:28:22.950Z,101142.25
2018-03-27T11:30:48.844Z,101146.97
2018-03-27T11:33:14.722Z,101150.03
2018-03-27T11:35:40.691Z,101144.61
2018-03-27T11:38:06.584Z,101148.72
2018-03-27T11:40:32.484Z,101150.41
2018-03-27T11:42:58.334Z,101150.25
2018-03-27T11:45:24.225Z,101143.15
2018-03-27T11:47:50.098Z,101142.01
2018-03-27T11:50:16.049Z,101138.95
2018-03-27T11:52:41.941Z,101135.21
2018-03-27T11:55:07.931Z,101131.08
2018-03-27T11:57:33.832Z,101129.88
2018-03-27T12:00:00.005Z,101126.55
2018-03-27T12:02:25.855Z,101126.53
2018-03-27T12:04:51.717Z,101121.39
2018-03-27T12:07:17.592Z,101127.16
2018-03-27T12:09:43.442Z,101130.04
2018-03-27T12:12:09.295Z,101128.28
2018-03-27T12:14:35.188Z,101114.98
2018-03-27T12:17:01.104Z,101115.10
2018-03-27T12:19:26.956Z,101116.86
2018-03-27T12:21:52.926Z,101107.68
2018-03-27T12:24:18.806Z,101112.48
2018-03-27T12:26:44.736Z,101105.27
2018-03-27T12:29:10.642Z,101102.94
2018-03-27T12:31:36.509Z,101103.70
2018-03-27T12:34:02.428Z,101102.66
2018-03-27T12:36:28.405Z,101101.69
2018-03-27T12:38:54.310Z,101102.14
2018-03-27T12:41:20.251Z,101097.58
2018-03-27T12:43:46.221Z,101095.07
2018-03-27T12:46:12.081Z,101092.73
2018-03-27T12:48:38.045Z,101091.91
2018-03-27T12:51:04.281Z,101095.85
2018-03-27T12:53:30.162Z,101091.88
2018-03-27T12:55:56.022Z,101087.67
2018-03-27T12:58:21.917Z,101088.92
2018-03-27T13:00:47.765Z,101077.13
2018-03-27T13:03:13.609Z,101076.81
2018-03-27T13:05:39.568Z,101079.87
2018-03-27T13:08:05.444Z,101068.23
2018-03-27T13:10:31.322Z,101072.38
2018-03-27T13:12:57.217Z,101070.84
2018-03-27T13:15:23.119Z,101060.73
2018-03-27T13:17:48.965Z,101062.09
2018-03-27T13:20:14.899Z,101057.04
2018-03-27T13:22:40.749Z,101064.99
2018-03-27T13:25:06.608Z,101055.97
2018-03-27T13:27:32.565Z,101054.81
2018-03-27T13:29:58.419Z,101059.32
2018-03-27T13:32:24.306Z,101054.47
2018-03-27T13:34:50.193Z,101058.62
2018-03-27T13:37:16.037Z,101048.36
2018-03-27T13:39:41.973Z,101041.57
2018-03-27T13:42:07.892Z,101037.56
2018-03-27T13:44:33.751Z,101028.31
2018-03-27T13:46:59.634Z,101027.97
2018-03-27T13:49:25.905Z,101025.70
2018-03-27T13:51:51.874Z,101020.47
2018-03-27T13:54:17.720Z,101018.71
2018-03-27T13:56:43.608Z,101018.52
2018-03-27T13:59:09.477Z,101015.69
2018-03-27T14:01:35.414Z,101028.69
2018-03-27T14:04:01.407Z,101024.54
2018-03-27T14:06:27.283Z,101013.51
2018-03-27T14:08:53.189Z,101014.48
2018-03-27T14:11:19.088Z,100997.98
2018-03-27T14:13:45.020Z,101004.52
2018-03-27T14:16:10.946Z,101000.20
2018-03-27T14:18:37.273Z,101000.45
2018-03-27T14:21:03.135Z,100996.42
2018-03-27T14:23:29.004Z,100998.72
2018-03-27T14:25:54.984Z,100987.88
2018-03-27T14:28:20.918Z,100989.87
2018-03-27T14:30:46.790Z,100987.37
2018-03-27T14:33:12.698Z,100984.41
2018-03-27T14:35:38.565Z,100974.97
2018-03-27T14:38:04.520Z,100980.78
2018-03-27T14:40:30.482Z,100990.41
2018-03-27T14:42:56.382Z,100980.14
2018-03-27T14:45:22.274Z,100981.28
2018-03-27T14:47:48.185Z,100972.27
2018-03-27T14:50:14.133Z,100974.25
2018-03-27T14:52:40.085Z,100968.15
2018-03-27T14:55:05.992Z,100965.75
2018-03-27T14:57:31.860Z,100966.56
2018-03-27T14:59:57.733Z,100972.84
2018-03-27T15:02:23.730Z,100958.48
2018-03-27T15:04:49.768Z,100964.59
2018-03-27T15:07:15.616Z,100968.08
2018-03-27T15:09:41.539Z,100957.30
2018-03-27T15:12:07.407Z,100955.99
2018-03-27T15:14:33.352Z,100957.80
2018-03-27T15:16:59.625Z,100950.70
2018-03-27T15:19:26.276Z,100950.27
2018-03-27T15:21:52.173Z,100944.22
2018-03-27T15:24:18.073Z,100949.08
2018-03-27T15:26:44.017Z,100942.59
2018-03-27T15:29:09.982Z,100945.17
2018-03-27T15:31:35.925Z,100945.66
2018-03-27T15:34:01.796Z,100940.05
2018-03-27T15:36:27.653Z,100943.97
2018-03-27T15:38:53.631Z,100937.44
2018-03-27T15:41:19.551Z,100928.77
2018-03-27T15:43:45.413Z,100929.15
2018-03-27T15:46:11.329Z,100930.52
2018-03-27T15:48:37.273Z,100928.27
2018-03-27T15:51:03.232Z,100923.05
2018-03-27T15:53:29.201Z,100915.63
2018-03-27T15:55:55.065Z,100911.20
2018-03-27T15:58:20.926Z,100909.52
2018-03-27T16:00:46.825Z,100907.84
2018-03-27T16:03:12.764Z,100900.91
2018-03-27T16:05:38.680Z,100898.74
2018-03-27T16:08:04.605Z,100894.87
2018-03-27T16:10:30.487Z,100898.80
2018-03-27T16:12:56.338Z,100894.92
2018-03-27T16:15:22.356Z,100887.91
2018-03-27T16:17:48.351Z,100883.55
2018-03-27T16:20:14.249Z,100885.33
2018-03-27T16:22:40.163Z,100878.37
2018-03-27T16:25:06.063Z,100889.27
2018-03-27T16:27:31.950Z,100884.91
2018-03-27T16:29:57.877Z,100885.00
2018-03-27T16:32:23.740Z,100881.08
2018-03-27T16:34:49.594Z,100880.69
2018-03-27T16:37:15.980Z,100881.13
2018-03-27T16:39:41.909Z,100886.78
2018-03-27T16:42:08.308Z,100883.73
2018-03-27T16:44:34.218Z,100884.20
2018-03-27T16:47:00.113Z,100879.86
2018-03-27T16:49:26.207Z,100880.30
2018-03-27T16:51:52.329Z,100882.91
2018-03-27T16:54:18.264Z,100884.25
2018-03-27T16:56:44.208Z,100887.80
2018-03-27T16:59:10.104Z,100886.92
2018-03-27T17:01:35.964Z,100890.00
2018-03-27T17:04:01.889Z,100892.20
2018-03-27T17:06:28.167Z,100888.30
2018-03-27T17:08:54.012Z,100892.65
2018-03-27T17:11:19.944Z,100892.22
2018-03-27T17:13:45.957Z,100893.52
2018-03-27T17:16:11.893Z,100896.16
2018-03-27T17:18:37.834Z,100885.72
2018-03-27T17:21:03.726Z,100892.66
2018-03-27T17:23:29.578Z,100883.09
2018-03-27T17:25:55.505Z,100892.64
2018-03-27T17:28:21.576Z,100887.87
2018-03-27T17:30:47.441Z,100887.41
2018-03-27T17:33:13.294Z,100890.45
2018-03-27T17:35:39.268Z,100885.19
2018-03-27T17:38:05.132Z,100886.95
2018-03-27T17:40:30.986Z,100886.02
2018-03-27T17:42:56.870Z,100879.53
2018-03-27T17:45:22.753Z,100872.52
2018-03-27T17:47:48.596Z,100873.35
2018-03-27T17:50:14.471Z,100873.73
2018-03-27T17:52:40.338Z,100875.88
2018-03-27T17:55:06.284Z,100882.83
2018-03-27T17:57:32.385Z,100873.23
2018-03-27T17:59:58.281Z,100877.98
2018-03-27T18:02:24.152Z,100882.28
2018-03-27T18:04:50.062Z,100878.91
2018-03-27T18:07:15.937Z,100883.67
2018-03-27T18:09:41.986Z,100881.45
2018-03-27T18:12:07.906Z,100876.69
2018-03-27T18:14:33.840Z,100880.53
2018-03-27T18:16:59.688Z,100885.27
2018-03-27T18:19:25.640Z,100880.50
2018-03-27T18:21:51.512Z,100878.34
2018-03-27T18:24:17.369Z,100879.52
2018-03-27T18:26:43.281Z,100873.51
2018-03-27T18:29:09.250Z,100876.09
2018-03-27T18:31:35.109Z,100873.50
2018-03-27T18:34:00.996Z,100870.89
2018-03-27T18:36:26.836Z,100880.03
2018-03-27T18:38:52.765Z,100878.24
2018-03-27T18:41:18.891Z,100880.38
2018-03-27T18:43:44.756Z,100879.47
2018-03-27T18:46:10.605Z,100871.69
2018-03-27T18:48:36.741Z,100876.05
2018-03-27T18:51:02.640Z,100875.64
2018-03-27T18:53:28.564Z,100879.99
2018-03-27T18:55:54.544Z,100879.13
2018-03-27T18:58:20.398Z,100877.00
2018-03-27T19:00:46.244Z,100883.95
2018-03-27T19:03:12.145Z,100877.86
2018-03-27T19:05:38.041Z,100876.55
2018-03-27T19:08:03.913Z,100877.44
2018-03-27T19:10:29.831Z,100876.13
2018-03-27T19:12:55.689Z,100875.69
2018-03-27T19:15:21.563Z,100874.91
2018-03-27T19:17:47.493Z,100880.95
2018-03-27T19:20:13.361Z,100881.81
2018-03-27T19:22:39.209Z,100881.81
2018-03-27T19:25:05.111Z,100877.89
2018-03-27T19:27:30.960Z,100874.39
2018-03-27T19:29:56.795Z,100887.03
2018-03-27T19:32:22.676Z,100886.13
2018-03-27T19:34:49.018Z,100894.87
2018-03-27T19:37:14.892Z,100893.11
2018-03-27T19:39:40.768Z,100881.34
2018-03-27T19:42:06.760Z,100882.18
2018-03-27T19:44:32.617Z,100884.34
2018-03-27T19:46:58.677Z,100873.88
2018-03-27T19:49:24.529Z,100882.52
2018-03-27T19:51:50.389Z,100881.89
2018-03-27T19:54:16.420Z,100867.56
2018-03-27T19:56:42.289Z,100870.08
2018-03-27T19:59:08.159Z,100861.95
2018-03-27T20:01:34.053Z,100854.84
2018-03-27T20:03:59.913Z,100856.91
2018-03-27T20:06:25.836Z,100858.63
2018-03-27T20:08:51.724Z,100862.48
2018-03-27T20:11:17.618Z,100854.23
2018-03-27T20:13:43.568Z,100859.86
2018-03-27T20:16:09.461Z,100863.84
2018-03-27T20:18:35.319Z,100863.50
2018-03-27T20:21:01.228Z,100868.78
2018-03-27T20:23:27.137Z,100856.04
2018-03-27T20:25:52.989Z,100854.98
2018-03-27T20:28:18.845Z,100851.58
2018-03-27T20:30:44.742Z,100843.84
2018-03-27T20:33:10.598Z,100839.00
2018-03-27T20:35:36.525Z,100847.68
2018-03-27T20:38:02.417Z,100848.04
2018-03-27T20:40:28.268Z,100847.16
2018-03-27T20:42:54.121Z,100847.02
2018-03-27T20:45:20.029Z,100845.33
2018-03-27T20:47:45.880Z,100845.81
2018-03-27T20:50:12.188Z,100847.65
2018-03-27T20:52:38.328Z,100843.60
2018-03-27T20:55:04.221Z,100828.00
2018-03-27T20:57:30.082Z,100838.39
2018-03-27T20:59:55.993Z,100834.47
2018-03-27T21:02:21.846Z,100834.47
2018-03-27T21:04:47.697Z,100832.67
2018-03-27T21:07:13.733Z,100827.98
2018-03-27T21:09:39.612Z,100821.34
2018-03-27T21:12:05.541Z,100820.88
2018-03-27T21:14:31.488Z,100823.45
2018-03-27T21:16:57.341Z,100823.00
2018-03-27T21:19:23.321Z,100819.45
2018-03-27T21:21:49.206Z,100820.81
2018-03-27T21:24:15.094Z,100816.48
2018-03-27T21:26:41.019Z,100816.88
2018-03-27T21:29:06.985Z,100809.53
2018-03-27T21:31:32.869Z,100812.12
2018-03-27T21:33:58.801Z,100808.97
2018-03-27T21:36:24.917Z,100805.11
2018-03-27T21:38:50.886Z,100804.66
2018-03-27T21:41:16.735Z,100803.74
2018-03-27T21:43:42.676Z,100808.92
2018-03-27T21:46:08.537Z,100805.03
2018-03-27T21:48:34.392Z,100811.48
2018-03-27T21:51:00.694Z,100801.09
2018-03-27T21:53:26.588Z,100797.63
2018-03-27T21:55:52.460Z,100793.22
2018-03-27T21:58:18.384Z,100787.52
2018-03-27T22:00:44.200Z,100783.99
2018-03-27T22:03:10.078Z,100782.20
2018-03-27T22:05:35.968Z,100771.44
2018-03-27T22:08:01.861Z,100782.20
2018-03-27T22:10:27.800Z,100775.67
2018-03-27T22:12:53.683Z,100775.44
2018-03-27T22:15:19.537Z,100768.38
2018-03-27T22:17:45.381Z,100756.70
2018-03-27T22:20:11.278Z,100756.15
2018-03-27T22:22:37.129Z,100758.74
2018-03-27T22:25:02.997Z,100760.07
2018-03-27T22:27:28.877Z,100763.09
2018-03-27T22:29:54.768Z,100758.75
2018-03-27T22:32:20.624Z,100763.42
2018-03-27T22:34:46.534Z,100758.69
2018-03-27T22:37:12.466Z,100753.44
2018-03-27T22:39:38.325Z,100752.45
2018-03-27T22:42:04.237Z,100756.36
2018-03-27T22:44:30.080Z,100752.88
2018-03-27T22:46:55.942Z,100742.09
2018-03-27T22:49:21.846Z,100742.03
2018-03-27T22:51:47.732Z,100736.84
2018-03-27T22:54:13.568Z,100735.48
2018-03-27T22:56:39.952Z,100732.80
2018-03-27T22:59:05.812Z,100723.71
2018-03-27T23:01:31.664Z,100724.18
2018-03-27T23:03:57.567Z,100718.14
2018-03-27T23:06:23.425Z,100714.66
2018-03-27T23:08:49.344Z,100715.52
2018-03-27T23:11:15.353Z,100712.06
2018-03-27T23:13:41.223Z,100710.79
2018-03-27T23:16:07.089Z,100706.88
2018-03-27T23:18:32.992Z,100704.67
2018-03-27T23:20:58.936Z,100714.11
2018-03-27T23:23:24.774Z,100716.27
2018-03-27T23:25:50.669Z,100711.03
2018-03-27T23:28:16.523Z,100711.94
2018-03-27T23:30:42.372Z,100712.80
2018-03-27T23:33:08.361Z,100716.23
2018-03-27T23:35:34.216Z,100706.38
2018-03-27T23:38:00.060Z,100705.89
2018-03-27T23:40:25.950Z,100702.91
2018-03-27T23:42:51.824Z,100704.61
2018-03-27T23:45:17.757Z,100706.34
2018-03-27T23:47:43.655Z,100700.77
2018-03-27T23:50:09.524Z,100704.19
2018-03-27T23:52:35.369Z,100703.41
2018-03-27T23:55:01.256Z,100703.42
2018-03-27T23:57:27.201Z,100707.37
2018-03-27T23:59:53.040Z,100700.42
